Dave Leboeuf — WDG6234 — position and weather

sailwx.info

Track history (hours):
 
Tides and Currents Weather Stations Pressure Air Temp Water Temp Dewpoint Dewpoint Depression Visibility Wind Speed Wind Dir Waves Ship Positions

Dave Leboeuf

Owner: LeBeouf Bros. Towing, LLC, Houma, LA. More information available from US FCC via Universal Licensing System and Coast Guard Vessel Documentation Center.

Last reported at 2017-Nov-18 07:49 UTC. Time now 2017-Nov-18 23:23 UTC.
Position N 29°42' W 095°03'.

Length 22 m; draft 0.3 m.

Type: Ship. MMSI: 367554830.

Date/timePositionNaut miles runAvg speedWind from/ knotsBaromVisibWave heightAir tempDewpointWater temp
2017-Nov-18 07:49N 29°42' W 095°03'0 0.0
2017-Nov-17 14:55N 29°42' W 095°03'0 0.0
2017-Nov-17 12:57N 29°42' W 095°03'1 0.2
2017-Nov-17 08:30N 29°42' W 095°02'2 4.9
2017-Nov-17 08:00N 29°44' W 095°03'4 5.1
2017-Nov-17 07:09N 29°44' W 095°08'3 6.6
2017-Nov-17 06:46N 29°45' W 095°11'1 0.4
2017-Nov-17 04:21N 29°44' W 095°12'0 0.0
2017-Nov-17 03:58N 29°44' W 095°12'0 0.0
2017-Nov-17 03:24N 29°44' W 095°12'0 0.0
2017-Nov-17 03:00N 29°44' W 095°12'0 0.0
2017-Nov-17 01:17N 29°44' W 095°12'0 0.0
2017-Nov-17 00:50N 29°44' W 095°12'0 0.0
2017-Nov-16 11:50N 29°44' W 095°12'0 0.4
2017-Nov-16 11:22N 29°44' W 095°12'0 0.0
2017-Nov-16 10:55N 29°44' W 095°12'0 0.0
2017-Nov-16 10:25N 29°44' W 095°12'0 0.0
2017-Nov-16 09:04N 29°44' W 095°12'0 0.0
2017-Nov-16 08:55N 29°44' W 095°12'0 0.0
2017-Nov-16 07:43N 29°44' W 095°12'0 0.0
2017-Nov-16 06:56N 29°44' W 095°12'0 0.0
2017-Nov-16 06:27N 29°44' W 095°12'0 0.0
2017-Nov-16 05:45N 29°44' W 095°12'0 0.0
2017-Nov-16 05:29N 29°44' W 095°12'0 0.0
2017-Nov-16 04:52N 29°44' W 095°12'0 0.1
2017-Nov-16 03:07N 29°44' W 095°12'0 4.2
2017-Nov-16 03:00N 29°45' W 095°12'9 5.6
2017-Nov-16 01:20N 29°42' W 095°01'1 3.1
2017-Nov-16 00:51N 29°43' W 095°03'0 0.5
2017-Nov-16 00:30N 29°42' W 095°03'0 0.0
2017-Nov-16 00:00N 29°42' W 095°03'0 0.0
2017-Nov-15 23:30N 29°42' W 095°03'0 0.0
2017-Nov-15 23:00N 29°42' W 095°03'0 0.0
2017-Nov-15 22:24N 29°42' W 095°03'0 0.0
2017-Nov-15 21:58N 29°42' W 095°03'0 0.0
2017-Nov-15 21:30N 29°42' W 095°03'0 0.0
2017-Nov-15 17:34N 29°42' W 095°03'0 0.0
2017-Nov-15 17:30N 29°42' W 095°03'0 0.3
2017-Nov-15 16:46N 29°42' W 095°03'1 2.2
2017-Nov-15 16:19N 29°42' W 095°02'0 0.3
2017-Nov-15 15:58N 29°42' W 095°01'1 1.6
2017-Nov-15 15:24N 29°42' W 095°02'0 0.9
2017-Nov-15 15:00N 29°43' W 095°03'0 0.3
2017-Nov-15 14:23N 29°42' W 095°03'0 0.0
2017-Nov-15 13:59N 29°42' W 095°03'0 0.0
2017-Nov-15 13:29N 29°42' W 095°03'0 0.0
2017-Nov-15 12:58N 29°42' W 095°03'0 0.0
2017-Nov-15 12:30N 29°42' W 095°03'0 0.0
2017-Nov-15 12:00N 29°42' W 095°03'0 0.0
2017-Nov-15 11:30N 29°42' W 095°03'0 0.0
2017-Nov-15 11:00N 29°42' W 095°03'0 0.0
2017-Nov-15 10:30N 29°42' W 095°03'0 0.0
2017-Nov-15 10:00N 29°42' W 095°03'0 0.0
2017-Nov-15 09:30N 29°42' W 095°03'0 0.0
2017-Nov-15 09:00N 29°42' W 095°03'0 0.0
2017-Nov-15 08:30N 29°42' W 095°03'0 0.0
2017-Nov-15 08:00N 29°42' W 095°03'0 0.0
2017-Nov-15 07:30N 29°42' W 095°03'0 0.0
2017-Nov-15 07:00N 29°42' W 095°03'0 0.0
2017-Nov-15 06:30N 29°42' W 095°03'0 0.0
2017-Nov-15 06:00N 29°42' W 095°03'0 0.0
2017-Nov-15 05:28N 29°42' W 095°03'0 0.0
2017-Nov-15 05:00N 29°42' W 095°03'0 0.0
2017-Nov-15 04:30N 29°42' W 095°03'0 0.0
2017-Nov-15 04:00N 29°42' W 095°03'0 0.0
2017-Nov-15 03:30N 29°42' W 095°03'0 0.0
2017-Nov-15 03:00N 29°42' W 095°03'0 0.0
2017-Nov-15 02:30N 29°42' W 095°03'0 0.0
2017-Nov-15 02:00N 29°42' W 095°03'0 0.0
2017-Nov-15 01:29N 29°42' W 095°03'0 0.0
2017-Nov-15 01:00N 29°42' W 095°03'0 0.0
2017-Nov-15 00:29N 29°42' W 095°03'0 0.0
2017-Nov-15 00:00N 29°42' W 095°03'0 0.0
2017-Nov-14 23:30N 29°42' W 095°03'0 0.0
2017-Nov-14 22:59N 29°42' W 095°03'0 0.0
2017-Nov-14 22:29N 29°42' W 095°03'0 0.0
2017-Nov-14 21:59N 29°42' W 095°03'0 0.0
2017-Nov-14 21:30N 29°42' W 095°03'0 0.0
2017-Nov-14 20:59N 29°42' W 095°03'0 0.0
2017-Nov-14 20:30N 29°42' W 095°03'0 0.0
2017-Nov-14 19:58N 29°42' W 095°03'0 0.0
2017-Nov-14 19:29N 29°42' W 095°03'0 0.0
2017-Nov-14 19:00N 29°42' W 095°03'0 0.0
2017-Nov-14 18:30N 29°42' W 095°03'0 0.0
2017-Nov-14 18:00N 29°42' W 095°03'0 0.0
2017-Nov-14 17:28N 29°42' W 095°03'0 0.0
2017-Nov-14 16:57N 29°42' W 095°03'0 0.0
2017-Nov-14 16:30N 29°42' W 095°03'0 0.0
2017-Nov-14 16:00N 29°42' W 095°03'0 0.0
2017-Nov-14 15:30N 29°42' W 095°03'0 0.0
2017-Nov-14 15:00N 29°42' W 095°03'0 0.0
2017-Nov-14 14:30N 29°42' W 095°03'0 0.0
2017-Nov-14 14:00N 29°42' W 095°03'0 0.0
2017-Nov-14 13:30N 29°42' W 095°03'0 0.0
2017-Nov-14 12:56N 29°42' W 095°03'0 0.0
2017-Nov-14 12:30N 29°42' W 095°03'0 0.0
2017-Nov-14 12:00N 29°42' W 095°03'0 0.0
2017-Nov-14 11:30N 29°42' W 095°03'0 0.0
2017-Nov-14 10:57N 29°42' W 095°03'0 0.0
2017-Nov-14 10:22N 29°42' W 095°03'0 0.0
2017-Nov-14 09:59N 29°42' W 095°03'0 0.1
2017-Nov-14 09:29N 29°42' W 095°03'0 0.3
2017-Nov-14 09:00N 29°43' W 095°03'0 0.4
2017-Nov-14 08:21N 29°42' W 095°02'1 3.5
2017-Nov-14 07:59N 29°42' W 095°01'3 6.0
2017-Nov-14 07:30N 29°40' W 094°59'3 6.7
2017-Nov-14 07:00N 29°37' W 094°57'3 6.5
2017-Nov-14 06:30N 29°34' W 094°55'90 3.1
2017-Nov-13 01:03N 30°08' W 093°19'0 0.1
2017-Nov-13 00:59N 30°08' W 093°19'0 0.0
2017-Nov-13 00:23N 30°08' W 093°19'0 0.0
2017-Nov-12 23:59N 30°08' W 093°19'0 0.0
2017-Nov-12 23:29N 30°08' W 093°19'0 0.0
2017-Nov-12 22:59N 30°08' W 093°19'0 0.0
2017-Nov-12 22:29N 30°08' W 093°19'0 0.0
2017-Nov-12 21:57N 30°08' W 093°19'0 0.0
2017-Nov-12 21:29N 30°08' W 093°19'0 0.0
2017-Nov-12 20:55N 30°08' W 093°19'0 0.0
2017-Nov-12 20:29N 30°08' W 093°19'0 0.0
2017-Nov-12 19:59N 30°08' W 093°19'0 0.0
2017-Nov-12 19:29N 30°08' W 093°19'0 0.0
2017-Nov-12 18:59N 30°08' W 093°19'0 0.0
2017-Nov-12 17:38N 30°08' W 093°19'0 0.0
2017-Nov-12 17:27N 30°08' W 093°19'0 0.0
2017-Nov-12 16:57N 30°08' W 093°19'0 0.0
2017-Nov-12 16:29N 30°08' W 093°19'0 0.0
2017-Nov-12 15:59N 30°08' W 093°19'0 0.0
2017-Nov-12 15:29N 30°08' W 093°19'0 0.0
2017-Nov-12 14:59N 30°08' W 093°19'0 0.0
2017-Nov-12 14:27N 30°08' W 093°19'0 0.0
2017-Nov-12 13:55N 30°08' W 093°19'0 0.0
2017-Nov-12 13:27N 30°08' W 093°19'0 0.0
2017-Nov-12 12:59N 30°08' W 093°19'0 0.0
2017-Nov-12 12:29N 30°08' W 093°19'0 0.0
2017-Nov-12 11:53N 30°08' W 093°19'3 0.1
2017-Nov-10 16:30N 30°05' W 093°20'0 0.0
2017-Nov-10 16:00N 30°05' W 093°20'0 0.0
2017-Nov-10 15:30N 30°05' W 093°20'0 0.0
2017-Nov-10 15:00N 30°05' W 093°20'0 0.0
2017-Nov-10 14:30N 30°05' W 093°20'0 0.0
2017-Nov-10 14:00N 30°05' W 093°20'0 0.0
2017-Nov-10 13:30N 30°05' W 093°20'0 0.0
2017-Nov-10 13:00N 30°05' W 093°20'0 0.0
2017-Nov-10 12:30N 30°05' W 093°20'0 0.0
2017-Nov-10 12:00N 30°05' W 093°20'0 0.8
2017-Nov-10 11:30N 30°05' W 093°20'0 0.0
2017-Nov-10 11:00N 30°05' W 093°20'0 0.0
2017-Nov-10 10:30N 30°05' W 093°20'0 0.0
2017-Nov-10 10:00N 30°05' W 093°20'0 0.0
2017-Nov-10 09:30N 30°05' W 093°20'0 0.0
2017-Nov-10 09:00N 30°05' W 093°20'0 0.0
2017-Nov-10 08:30N 30°05' W 093°20'0 0.0
2017-Nov-10 08:00N 30°05' W 093°20'0 0.0
2017-Nov-10 07:30N 30°05' W 093°20'0 0.0
2017-Nov-10 07:00N 30°05' W 093°20'0 0.0
2017-Nov-10 06:30N 30°05' W 093°20'0 0.5
2017-Nov-10 06:00N 30°05' W 093°20'0 0.7
2017-Nov-10 05:30N 30°05' W 093°20'0 0.2
2017-Nov-10 05:00N 30°05' W 093°20'1 3.0
2017-Nov-10 04:30N 30°06' W 093°19'0 0.6
2017-Nov-10 04:00N 30°06' W 093°19'1 2.8
2017-Nov-10 03:30N 30°05' W 093°18'1 1.7
2017-Nov-10 03:00N 30°05' W 093°17'2 3.4
2017-Nov-10 02:30N 30°03' W 093°16'2 4.0
2017-Nov-10 02:00N 30°02' W 093°14'2 4.1
2017-Nov-10 01:30N 29°60' W 093°13'2 4.2
2017-Nov-10 01:00N 29°58' W 093°12'2 4.8
2017-Nov-10 00:30N 29°56' W 093°10'2 4.6
2017-Nov-10 00:00N 29°56' W 093°07'2 4.6
2017-Nov-09 23:29N 29°56' W 093°04'38 4.0
2017-Nov-09 14:12N 29°51' W 092°22'1 4.2
2017-Nov-09 13:58N 29°51' W 092°21'2 4.5
2017-Nov-09 13:30N 29°50' W 092°18'2 4.2
2017-Nov-09 13:00N 29°49' W 092°17'2 4.8
2017-Nov-09 12:30N 29°48' W 092°14'2 3.9
2017-Nov-09 12:00N 29°47' W 092°12'1 1.9
2017-Nov-09 11:30N 29°47' W 092°11'1 2.0
2017-Nov-09 11:00N 29°47' W 092°10'2 3.9
2017-Nov-09 10:30N 29°47' W 092°08'2 4.8
2017-Nov-09 10:00N 29°48' W 092°05'2 4.5
2017-Nov-09 09:30N 29°49' W 092°03'2 4.8
2017-Nov-09 09:00N 29°50' W 091°60'2 4.8
2017-Nov-09 08:30N 29°50' W 091°57'  
Track history (hours):
 
Tides and Currents Weather Stations Pressure Air Temp Water Temp Dewpoint Dewpoint Depression Visibility Wind Speed Wind Dir Waves Ship Positions

Dave Leboeuf

Owner: LeBeouf Bros. Towing, LLC, Houma, LA. More information available from US FCC via Universal Licensing System and Coast Guard Vessel Documentation Center.

Last reported at 2017-Nov-18 07:49 UTC. Time now 2017-Nov-18 23:23 UTC.
Position N 29°42' W 095°03'.

Length 22 m; draft 0.3 m.

Type: Ship. MMSI: 367554830.

Date/timePositionNaut miles runAvg speedWind from/ knotsBaromVisibWave heightAir tempDewpointWater temp
2017-Nov-18 07:49N 29°42' W 095°03'0 0.0
2017-Nov-17 14:55N 29°42' W 095°03'0 0.0
2017-Nov-17 12:57N 29°42' W 095°03'1 0.2
2017-Nov-17 08:30N 29°42' W 095°02'2 4.9
2017-Nov-17 08:00N 29°44' W 095°03'4 5.1
2017-Nov-17 07:09N 29°44' W 095°08'3 6.6
2017-Nov-17 06:46N 29°45' W 095°11'1 0.4
2017-Nov-17 04:21N 29°44' W 095°12'0 0.0
2017-Nov-17 03:58N 29°44' W 095°12'0 0.0
2017-Nov-17 03:24N 29°44' W 095°12'0 0.0
2017-Nov-17 03:00N 29°44' W 095°12'0 0.0
2017-Nov-17 01:17N 29°44' W 095°12'0 0.0
2017-Nov-17 00:50N 29°44' W 095°12'0 0.0
2017-Nov-16 11:50N 29°44' W 095°12'0 0.4
2017-Nov-16 11:22N 29°44' W 095°12'0 0.0
2017-Nov-16 10:55N 29°44' W 095°12'0 0.0
2017-Nov-16 10:25N 29°44' W 095°12'0 0.0
2017-Nov-16 09:04N 29°44' W 095°12'0 0.0
2017-Nov-16 08:55N 29°44' W 095°12'0 0.0
2017-Nov-16 07:43N 29°44' W 095°12'0 0.0
2017-Nov-16 06:56N 29°44' W 095°12'0 0.0
2017-Nov-16 06:27N 29°44' W 095°12'0 0.0
2017-Nov-16 05:45N 29°44' W 095°12'0 0.0
2017-Nov-16 05:29N 29°44' W 095°12'0 0.0
2017-Nov-16 04:52N 29°44' W 095°12'0 0.1
2017-Nov-16 03:07N 29°44' W 095°12'0 4.2
2017-Nov-16 03:00N 29°45' W 095°12'9 5.6
2017-Nov-16 01:20N 29°42' W 095°01'1 3.1
2017-Nov-16 00:51N 29°43' W 095°03'0 0.5
2017-Nov-16 00:30N 29°42' W 095°03'0 0.0
2017-Nov-16 00:00N 29°42' W 095°03'0 0.0
2017-Nov-15 23:30N 29°42' W 095°03'0 0.0
2017-Nov-15 23:00N 29°42' W 095°03'0 0.0
2017-Nov-15 22:24N 29°42' W 095°03'0 0.0
2017-Nov-15 21:58N 29°42' W 095°03'0 0.0
2017-Nov-15 21:30N 29°42' W 095°03'0 0.0
2017-Nov-15 17:34N 29°42' W 095°03'0 0.0
2017-Nov-15 17:30N 29°42' W 095°03'0 0.3
2017-Nov-15 16:46N 29°42' W 095°03'1 2.2
2017-Nov-15 16:19N 29°42' W 095°02'0 0.3
2017-Nov-15 15:58N 29°42' W 095°01'1 1.6
2017-Nov-15 15:24N 29°42' W 095°02'0 0.9
2017-Nov-15 15:00N 29°43' W 095°03'0 0.3
2017-Nov-15 14:23N 29°42' W 095°03'0 0.0
2017-Nov-15 13:59N 29°42' W 095°03'0 0.0
2017-Nov-15 13:29N 29°42' W 095°03'0 0.0
2017-Nov-15 12:58N 29°42' W 095°03'0 0.0
2017-Nov-15 12:30N 29°42' W 095°03'0 0.0
2017-Nov-15 12:00N 29°42' W 095°03'0 0.0
2017-Nov-15 11:30N 29°42' W 095°03'0 0.0
2017-Nov-15 11:00N 29°42' W 095°03'0 0.0
2017-Nov-15 10:30N 29°42' W 095°03'0 0.0
2017-Nov-15 10:00N 29°42' W 095°03'0 0.0
2017-Nov-15 09:30N 29°42' W 095°03'0 0.0
2017-Nov-15 09:00N 29°42' W 095°03'0 0.0
2017-Nov-15 08:30N 29°42' W 095°03'0 0.0
2017-Nov-15 08:00N 29°42' W 095°03'0 0.0
2017-Nov-15 07:30N 29°42' W 095°03'0 0.0
2017-Nov-15 07:00N 29°42' W 095°03'0 0.0
2017-Nov-15 06:30N 29°42' W 095°03'0 0.0
2017-Nov-15 06:00N 29°42' W 095°03'0 0.0
2017-Nov-15 05:28N 29°42' W 095°03'0 0.0
2017-Nov-15 05:00N 29°42' W 095°03'0 0.0
2017-Nov-15 04:30N 29°42' W 095°03'0 0.0
2017-Nov-15 04:00N 29°42' W 095°03'0 0.0
2017-Nov-15 03:30N 29°42' W 095°03'0 0.0
2017-Nov-15 03:00N 29°42' W 095°03'0 0.0
2017-Nov-15 02:30N 29°42' W 095°03'0 0.0
2017-Nov-15 02:00N 29°42' W 095°03'0 0.0
2017-Nov-15 01:29N 29°42' W 095°03'0 0.0
2017-Nov-15 01:00N 29°42' W 095°03'0 0.0
2017-Nov-15 00:29N 29°42' W 095°03'0 0.0
2017-Nov-15 00:00N 29°42' W 095°03'0 0.0
2017-Nov-14 23:30N 29°42' W 095°03'0 0.0
2017-Nov-14 22:59N 29°42' W 095°03'0 0.0
2017-Nov-14 22:29N 29°42' W 095°03'0 0.0
2017-Nov-14 21:59N 29°42' W 095°03'0 0.0
2017-Nov-14 21:30N 29°42' W 095°03'0 0.0
2017-Nov-14 20:59N 29°42' W 095°03'0 0.0
2017-Nov-14 20:30N 29°42' W 095°03'0 0.0
2017-Nov-14 19:58N 29°42' W 095°03'0 0.0
2017-Nov-14 19:29N 29°42' W 095°03'0 0.0
2017-Nov-14 19:00N 29°42' W 095°03'0 0.0
2017-Nov-14 18:30N 29°42' W 095°03'0 0.0
2017-Nov-14 18:00N 29°42' W 095°03'0 0.0
2017-Nov-14 17:28N 29°42' W 095°03'0 0.0
2017-Nov-14 16:57N 29°42' W 095°03'0 0.0
2017-Nov-14 16:30N 29°42' W 095°03'0 0.0
2017-Nov-14 16:00N 29°42' W 095°03'0 0.0
2017-Nov-14 15:30N 29°42' W 095°03'0 0.0
2017-Nov-14 15:00N 29°42' W 095°03'0 0.0
2017-Nov-14 14:30N 29°42' W 095°03'0 0.0
2017-Nov-14 14:00N 29°42' W 095°03'0 0.0
2017-Nov-14 13:30N 29°42' W 095°03'0 0.0
2017-Nov-14 12:56N 29°42' W 095°03'0 0.0
2017-Nov-14 12:30N 29°42' W 095°03'0 0.0
2017-Nov-14 12:00N 29°42' W 095°03'0 0.0
2017-Nov-14 11:30N 29°42' W 095°03'0 0.0
2017-Nov-14 10:57N 29°42' W 095°03'0 0.0
2017-Nov-14 10:22N 29°42' W 095°03'0 0.0
2017-Nov-14 09:59N 29°42' W 095°03'0 0.1
2017-Nov-14 09:29N 29°42' W 095°03'0 0.3
2017-Nov-14 09:00N 29°43' W 095°03'0 0.4
2017-Nov-14 08:21N 29°42' W 095°02'1 3.5
2017-Nov-14 07:59N 29°42' W 095°01'3 6.0
2017-Nov-14 07:30N 29°40' W 094°59'3 6.7
2017-Nov-14 07:00N 29°37' W 094°57'3 6.5
2017-Nov-14 06:30N 29°34' W 094°55'90 3.1
2017-Nov-13 01:03N 30°08' W 093°19'0 0.1
2017-Nov-13 00:59N 30°08' W 093°19'0 0.0
2017-Nov-13 00:23N 30°08' W 093°19'0 0.0
2017-Nov-12 23:59N 30°08' W 093°19'0 0.0
2017-Nov-12 23:29N 30°08' W 093°19'0 0.0
2017-Nov-12 22:59N 30°08' W 093°19'0 0.0
2017-Nov-12 22:29N 30°08' W 093°19'0 0.0
2017-Nov-12 21:57N 30°08' W 093°19'0 0.0
2017-Nov-12 21:29N 30°08' W 093°19'0 0.0
2017-Nov-12 20:55N 30°08' W 093°19'0 0.0
2017-Nov-12 20:29N 30°08' W 093°19'0 0.0
2017-Nov-12 19:59N 30°08' W 093°19'0 0.0
2017-Nov-12 19:29N 30°08' W 093°19'0 0.0
2017-Nov-12 18:59N 30°08' W 093°19'0 0.0
2017-Nov-12 17:38N 30°08' W 093°19'0 0.0
2017-Nov-12 17:27N 30°08' W 093°19'0 0.0
2017-Nov-12 16:57N 30°08' W 093°19'0 0.0
2017-Nov-12 16:29N 30°08' W 093°19'0 0.0
2017-Nov-12 15:59N 30°08' W 093°19'0 0.0
2017-Nov-12 15:29N 30°08' W 093°19'0 0.0
2017-Nov-12 14:59N 30°08' W 093°19'0 0.0
2017-Nov-12 14:27N 30°08' W 093°19'0 0.0
2017-Nov-12 13:55N 30°08' W 093°19'0 0.0
2017-Nov-12 13:27N 30°08' W 093°19'0 0.0
2017-Nov-12 12:59N 30°08' W 093°19'0 0.0
2017-Nov-12 12:29N 30°08' W 093°19'0 0.0
2017-Nov-12 11:53N 30°08' W 093°19'3 0.1
2017-Nov-10 16:30N 30°05' W 093°20'0 0.0
2017-Nov-10 16:00N 30°05' W 093°20'0 0.0
2017-Nov-10 15:30N 30°05' W 093°20'0 0.0
2017-Nov-10 15:00N 30°05' W 093°20'0 0.0
2017-Nov-10 14:30N 30°05' W 093°20'0 0.0
2017-Nov-10 14:00N 30°05' W 093°20'0 0.0
2017-Nov-10 13:30N 30°05' W 093°20'0 0.0
2017-Nov-10 13:00N 30°05' W 093°20'0 0.0
2017-Nov-10 12:30N 30°05' W 093°20'0 0.0
2017-Nov-10 12:00N 30°05' W 093°20'0 0.8
2017-Nov-10 11:30N 30°05' W 093°20'0 0.0
2017-Nov-10 11:00N 30°05' W 093°20'0 0.0
2017-Nov-10 10:30N 30°05' W 093°20'0 0.0
2017-Nov-10 10:00N 30°05' W 093°20'0 0.0
2017-Nov-10 09:30N 30°05' W 093°20'0 0.0
2017-Nov-10 09:00N 30°05' W 093°20'0 0.0
2017-Nov-10 08:30N 30°05' W 093°20'0 0.0
2017-Nov-10 08:00N 30°05' W 093°20'0 0.0
2017-Nov-10 07:30N 30°05' W 093°20'0 0.0
2017-Nov-10 07:00N 30°05' W 093°20'0 0.0
2017-Nov-10 06:30N 30°05' W 093°20'0 0.5
2017-Nov-10 06:00N 30°05' W 093°20'0 0.7
2017-Nov-10 05:30N 30°05' W 093°20'0 0.2
2017-Nov-10 05:00N 30°05' W 093°20'1 3.0
2017-Nov-10 04:30N 30°06' W 093°19'0 0.6
2017-Nov-10 04:00N 30°06' W 093°19'1 2.8
2017-Nov-10 03:30N 30°05' W 093°18'1 1.7
2017-Nov-10 03:00N 30°05' W 093°17'2 3.4
2017-Nov-10 02:30N 30°03' W 093°16'2 4.0
2017-Nov-10 02:00N 30°02' W 093°14'2 4.1
2017-Nov-10 01:30N 29°60' W 093°13'2 4.2
2017-Nov-10 01:00N 29°58' W 093°12'2 4.8
2017-Nov-10 00:30N 29°56' W 093°10'2 4.6
2017-Nov-10 00:00N 29°56' W 093°07'2 4.6
2017-Nov-09 23:29N 29°56' W 093°04'38 4.0
2017-Nov-09 14:12N 29°51' W 092°22'1 4.2
2017-Nov-09 13:58N 29°51' W 092°21'2 4.5
2017-Nov-09 13:30N 29°50' W 092°18'2 4.2
2017-Nov-09 13:00N 29°49' W 092°17'2 4.8
2017-Nov-09 12:30N 29°48' W 092°14'2 3.9
2017-Nov-09 12:00N 29°47' W 092°12'1 1.9
2017-Nov-09 11:30N 29°47' W 092°11'1 2.0
2017-Nov-09 11:00N 29°47' W 092°10'2 3.9
2017-Nov-09 10:30N 29°47' W 092°08'2 4.8
2017-Nov-09 10:00N 29°48' W 092°05'2 4.5
2017-Nov-09 09:30N 29°49' W 092°03'2 4.8
2017-Nov-09 09:00N 29°50' W 091°60'2 4.8
2017-Nov-09 08:30N 29°50' W 091°57'  

Dump ship's entire track history